sensor_id;sensor_type;location;lat;lon;timestamp;temperature;humidity
6363;DHT22;3214;49.932;8.494;2024-03-17T00:01:57;9.80;99.90
6363;DHT22;3214;49.932;8.494;2024-03-17T00:04:24;9.70;99.90
6363;DHT22;3214;49.932;8.494;2024-03-17T00:06:51;9.70;99.90
6363;DHT22;3214;49.932;8.494;2024-03-17T00:09:18;9.70;99.90
6363;DHT22;3214;49.932;8.494;2024-03-17T00:11:44;9.60;99.90
6363;DHT22;3214;49.932;8.494;2024-03-17T00:14:11;9.60;99.90
6363;DHT22;3214;49.932;8.494;2024-03-17T00:16:37;9.50;99.90
6363;DHT22;3214;49.932;8.494;2024-03-17T00:19:04;9.40;99.90
6363;DHT22;3214;49.932;8.494;2024-03-17T00:21:31;9.40;99.90
6363;DHT22;3214;49.932;8.494;2024-03-17T00:23:59;9.30;99.90
6363;DHT22;3214;49.932;8.494;2024-03-17T00:26:25;9.20;99.90
6363;DHT22;3214;49.932;8.494;2024-03-17T00:28:53;9.20;99.90
6363;DHT22;3214;49.932;8.494;2024-03-17T00:31:19;9.20;99.90
6363;DHT22;3214;49.932;8.494;2024-03-17T00:33:45;9.30;99.90
6363;DHT22;3214;49.932;8.494;2024-03-17T00:36:12;9.20;99.90
6363;DHT22;3214;49.932;8.494;2024-03-17T00:38:38;9.20;99.90
6363;DHT22;3214;49.932;8.494;2024-03-17T00:41:06;9.20;99.90
6363;DHT22;3214;49.932;8.494;2024-03-17T00:43:32;9.10;99.90
6363;DHT22;3214;49.932;8.494;2024-03-17T00:45:58;9.00;99.90
6363;DHT22;3214;49.932;8.494;2024-03-17T00:48:25;8.90;99.90
6363;DHT22;3214;49.932;8.494;2024-03-17T00:50:55;8.90;99.90
6363;DHT22;3214;49.932;8.494;2024-03-17T00:53:21;8.90;99.90
6363;DHT22;3214;49.932;8.494;2024-03-17T00:55:51;8.90;99.90
6363;DHT22;3214;49.932;8.494;2024-03-17T00:58:19;8.80;99.90
6363;DHT22;3214;49.932;8.494;2024-03-17T01:00:46;8.80;99.90
6363;DHT22;3214;49.932;8.494;2024-03-17T01:03:13;8.80;99.90
6363;DHT22;3214;49.932;8.494;2024-03-17T01:05:40;8.70;99.90
6363;DHT22;3214;49.932;8.494;2024-03-17T01:08:08;8.60;99.90
6363;DHT22;3214;49.932;8.494;2024-03-17T01:10:37;8.50;99.90
6363;DHT22;3214;49.932;8.494;2024-03-17T01:13:03;8.40;99.90
6363;DHT22;3214;49.932;8.494;2024-03-17T01:15:31;8.40;99.90
6363;DHT22;3214;49.932;8.494;2024-03-17T01:17:57;8.40;99.90
6363;DHT22;3214;49.932;8.494;2024-03-17T01:20:25;8.30;99.90
6363;DHT22;3214;49.932;8.494;2024-03-17T01:22:52;8.30;99.90
6363;DHT22;3214;49.932;8.494;2024-03-17T01:25:18;8.30;99.90
6363;DHT22;3214;49.932;8.494;2024-03-17T01:27:45;8.30;99.90
6363;DHT22;3214;49.932;8.494;2024-03-17T01:30:11;8.20;99.90
6363;DHT22;3214;49.932;8.494;2024-03-17T01:32:40;8.20;99.90
6363;DHT22;3214;49.932;8.494;2024-03-17T01:35:07;8.20;99.90
6363;DHT22;3214;49.932;8.494;2024-03-17T01:37:33;8.20;99.90
6363;DHT22;3214;49.932;8.494;2024-03-17T01:40:00;8.20;99.90
6363;DHT22;3214;49.932;8.494;2024-03-17T01:42:26;8.10;99.90
6363;DHT22;3214;49.932;8.494;2024-03-17T01:44:53;8.00;99.90
6363;DHT22;3214;49.932;8.494;2024-03-17T01:47:19;8.00;99.90
6363;DHT22;3214;49.932;8.494;2024-03-17T01:49:47;8.00;99.90
6363;DHT22;3214;49.932;8.494;2024-03-17T01:52:15;8.00;99.90
6363;DHT22;3214;49.932;8.494;2024-03-17T01:54:42;7.80;99.90
6363;DHT22;3214;49.932;8.494;2024-03-17T01:57:08;7.70;99.90
6363;DHT22;3214;49.932;8.494;2024-03-17T01:59:36;7.70;99.90
6363;DHT22;3214;49.932;8.494;2024-03-17T02:02:03;7.60;99.90
6363;DHT22;3214;49.932;8.494;2024-03-17T02:04:32;7.30;99.90
6363;DHT22;3214;49.932;8.494;2024-03-17T02:06:59;7.20;99.90
6363;DHT22;3214;49.932;8.494;2024-03-17T02:09:25;7.10;99.90
6363;DHT22;3214;49.932;8.494;2024-03-17T02:11:51;7.00;99.90
6363;DHT22;3214;49.932;8.494;2024-03-17T02:14:19;7.00;99.90
6363;DHT22;3214;49.932;8.494;2024-03-17T02:16:45;7.00;99.90
6363;DHT22;3214;49.932;8.494;2024-03-17T02:19:12;7.00;99.90
6363;DHT22;3214;49.932;8.494;2024-03-17T02:21:38;7.00;99.90
6363;DHT22;3214;49.932;8.494;2024-03-17T02:24:08;7.00;99.90
6363;DHT22;3214;49.932;8.494;2024-03-17T02:26:33;6.90;99.90
6363;DHT22;3214;49.932;8.494;2024-03-17T02:29:01;6.80;99.90
6363;DHT22;3214;49.932;8.494;2024-03-17T02:31:27;6.80;99.90
6363;DHT22;3214;49.932;8.494;2024-03-17T02:33:53;6.80;99.90
6363;DHT22;3214;49.932;8.494;2024-03-17T02:36:19;6.70;99.90
6363;DHT22;3214;49.932;8.494;2024-03-17T02:38:46;6.60;99.90
6363;DHT22;3214;49.932;8.494;2024-03-17T02:41:32;6.60;99.90
6363;DHT22;3214;49.932;8.494;2024-03-17T02:43:58;6.60;99.90
6363;DHT22;3214;49.932;8.494;2024-03-17T02:46:26;6.60;99.90
6363;DHT22;3214;49.932;8.494;2024-03-17T02:48:53;6.70;99.90
6363;DHT22;3214;49.932;8.494;2024-03-17T02:51:21;6.80;99.90
6363;DHT22;3214;49.932;8.494;2024-03-17T02:53:50;6.90;99.90
6363;DHT22;3214;49.932;8.494;2024-03-17T02:56:18;7.00;99.90
6363;DHT22;3214;49.932;8.494;2024-03-17T02:58:47;7.00;99.90
6363;DHT22;3214;49.932;8.494;2024-03-17T03:01:14;7.00;99.90
6363;DHT22;3214;49.932;8.494;2024-03-17T03:03:41;7.10;99.90
6363;DHT22;3214;49.932;8.494;2024-03-17T03:06:08;7.20;99.90
6363;DHT22;3214;49.932;8.494;2024-03-17T03:08:37;7.20;99.90
6363;DHT22;3214;49.932;8.494;2024-03-17T03:11:06;7.10;99.90
6363;DHT22;3214;49.932;8.494;2024-03-17T03:13:36;7.00;99.90
6363;DHT22;3214;49.932;8.494;2024-03-17T03:16:05;7.00;99.90
6363;DHT22;3214;49.932;8.494;2024-03-17T03:18:33;6.90;99.90
6363;DHT22;3214;49.932;8.494;2024-03-17T03:21:00;6.80;99.90
6363;DHT22;3214;49.932;8.494;2024-03-17T03:23:27;6.70;99.90
6363;DHT22;3214;49.932;8.494;2024-03-17T03:25:57;6.70;99.90
6363;DHT22;3214;49.932;8.494;2024-03-17T03:28:24;6.70;99.90
6363;DHT22;3214;49.932;8.494;2024-03-17T03:30:50;6.60;99.90
6363;DHT22;3214;49.932;8.494;2024-03-17T03:33:19;6.70;99.90
6363;DHT22;3214;49.932;8.494;2024-03-17T03:35:46;6.70;99.90
6363;DHT22;3214;49.932;8.494;2024-03-17T03:38:12;6.70;99.90
6363;DHT22;3214;49.932;8.494;2024-03-17T03:40:40;6.60;99.90
6363;DHT22;3214;49.932;8.494;2024-03-17T03:43:08;6.60;99.90
6363;DHT22;3214;49.932;8.494;2024-03-17T03:45:35;6.60;99.90
6363;DHT22;3214;49.932;8.494;2024-03-17T03:48:03;6.60;99.90
6363;DHT22;3214;49.932;8.494;2024-03-17T03:50:32;6.50;99.90
6363;DHT22;3214;49.932;8.494;2024-03-17T03:52:58;6.50;99.90
6363;DHT22;3214;49.932;8.494;2024-03-17T03:55:25;6.50;99.90
6363;DHT22;3214;49.932;8.494;2024-03-17T03:57:52;6.50;99.90
6363;DHT22;3214;49.932;8.494;2024-03-17T04:00:19;6.40;99.90
6363;DHT22;3214;49.932;8.494;2024-03-17T04:02:48;6.20;99.90
6363;DHT22;3214;49.932;8.494;2024-03-17T04:05:16;6.20;99.90
6363;DHT22;3214;49.932;8.494;2024-03-17T04:07:45;6.30;99.90
6363;DHT22;3214;49.932;8.494;2024-03-17T04:10:12;6.30;99.90
6363;DHT22;3214;49.932;8.494;2024-03-17T04:12:39;6.30;99.90
6363;DHT22;3214;49.932;8.494;2024-03-17T04:15:07;6.30;99.90
6363;DHT22;3214;49.932;8.494;2024-03-17T04:17:35;6.20;99.90
6363;DHT22;3214;49.932;8.494;2024-03-17T04:20:03;6.20;99.90
6363;DHT22;3214;49.932;8.494;2024-03-17T04:22:30;6.10;99.90
6363;DHT22;3214;49.932;8.494;2024-03-17T04:24:59;6.10;99.90
6363;DHT22;3214;49.932;8.494;2024-03-17T04:27:26;6.10;99.90
6363;DHT22;3214;49.932;8.494;2024-03-17T04:29:55;6.10;99.90
6363;DHT22;3214;49.932;8.494;2024-03-17T04:32:23;6.20;99.90
6363;DHT22;3214;49.932;8.494;2024-03-17T04:34:52;6.10;99.90
6363;DHT22;3214;49.932;8.494;2024-03-17T04:37:19;6.10;99.90
6363;DHT22;3214;49.932;8.494;2024-03-17T04:39:46;6.10;99.90
6363;DHT22;3214;49.932;8.494;2024-03-17T04:42:16;6.00;99.90
6363;DHT22;3214;49.932;8.494;2024-03-17T04:44:43;5.90;99.90
6363;DHT22;3214;49.932;8.494;2024-03-17T04:47:10;5.90;99.90
6363;DHT22;3214;49.932;8.494;2024-03-17T04:49:38;6.00;99.90
6363;DHT22;3214;49.932;8.494;2024-03-17T04:52:06;6.00;99.90
6363;DHT22;3214;49.932;8.494;2024-03-17T04:54:34;6.10;99.90
6363;DHT22;3214;49.932;8.494;2024-03-17T04:57:01;6.10;99.90
6363;DHT22;3214;49.932;8.494;2024-03-17T04:59:30;6.10;99.90
6363;DHT22;3214;49.932;8.494;2024-03-17T05:02:00;5.90;99.90
6363;DHT22;3214;49.932;8.494;2024-03-17T05:04:27;5.80;99.90
6363;DHT22;3214;49.932;8.494;2024-03-17T05:06:54;5.70;99.90
6363;DHT22;3214;49.932;8.494;2024-03-17T05:09:21;5.70;99.90
6363;DHT22;3214;49.932;8.494;2024-03-17T05:11:50;5.70;99.90
6363;DHT22;3214;49.932;8.494;2024-03-17T05:14:17;5.70;99.90
6363;DHT22;3214;49.932;8.494;2024-03-17T05:16:48;5.80;99.90
6363;DHT22;3214;49.932;8.494;2024-03-17T05:19:15;5.70;99.90
6363;DHT22;3214;49.932;8.494;2024-03-17T05:21:43;5.70;99.90
6363;DHT22;3214;49.932;8.494;2024-03-17T05:24:10;5.70;99.90
6363;DHT22;3214;49.932;8.494;2024-03-17T05:26:37;5.70;99.90
6363;DHT22;3214;49.932;8.494;2024-03-17T05:29:04;5.90;99.90
6363;DHT22;3214;49.932;8.494;2024-03-17T05:31:31;5.90;99.90
6363;DHT22;3214;49.932;8.494;2024-03-17T05:33:59;6.00;99.90
6363;DHT22;3214;49.932;8.494;2024-03-17T05:36:26;6.00;99.90
6363;DHT22;3214;49.932;8.494;2024-03-17T05:38:58;6.00;99.90
6363;DHT22;3214;49.932;8.494;2024-03-17T05:41:24;6.10;99.90
6363;DHT22;3214;49.932;8.494;2024-03-17T05:43:51;6.10;99.90
6363;DHT22;3214;49.932;8.494;2024-03-17T05:46:18;6.20;99.90
6363;DHT22;3214;49.932;8.494;2024-03-17T05:48:45;6.20;99.90
6363;DHT22;3214;49.932;8.494;2024-03-17T05:51:13;6.20;99.90
6363;DHT22;3214;49.932;8.494;2024-03-17T05:53:41;6.20;99.90
6363;DHT22;3214;49.932;8.494;2024-03-17T05:56:10;6.30;99.90
6363;DHT22;3214;49.932;8.494;2024-03-17T05:58:38;6.30;99.90
6363;DHT22;3214;49.932;8.494;2024-03-17T06:01:05;6.40;99.90
6363;DHT22;3214;49.932;8.494;2024-03-17T06:03:32;6.50;99.90
6363;DHT22;3214;49.932;8.494;2024-03-17T06:06:01;6.60;99.90
6363;DHT22;3214;49.932;8.494;2024-03-17T06:08:30;6.60;99.90
6363;DHT22;3214;49.932;8.494;2024-03-17T06:10:57;6.60;99.90
6363;DHT22;3214;49.932;8.494;2024-03-17T06:13:25;6.50;99.90
6363;DHT22;3214;49.932;8.494;2024-03-17T06:15:53;6.50;99.90
6363;DHT22;3214;49.932;8.494;2024-03-17T06:18:20;6.50;99.90
6363;DHT22;3214;49.932;8.494;2024-03-17T06:20:47;6.50;99.90
6363;DHT22;3214;49.932;8.494;2024-03-17T06:23:15;6.60;99.90
6363;DHT22;3214;49.932;8.494;2024-03-17T06:25:45;6.60;99.90
6363;DHT22;3214;49.932;8.494;2024-03-17T06:28:14;6.60;99.90
6363;DHT22;3214;49.932;8.494;2024-03-17T06:30:41;6.70;99.90
6363;DHT22;3214;49.932;8.494;2024-03-17T06:33:09;6.70;99.90
6363;DHT22;3214;49.932;8.494;2024-03-17T06:35:36;6.60;99.90
6363;DHT22;3214;49.932;8.494;2024-03-17T06:38:03;6.80;99.90
6363;DHT22;3214;49.932;8.494;2024-03-17T06:40:30;6.80;99.90
6363;DHT22;3214;49.932;8.494;2024-03-17T06:42:58;6.80;99.90
6363;DHT22;3214;49.932;8.494;2024-03-17T06:45:25;6.80;99.90
6363;DHT22;3214;49.932;8.494;2024-03-17T06:47:52;6.80;99.90
6363;DHT22;3214;49.932;8.494;2024-03-17T06:50:22;6.80;99.90
6363;DHT22;3214;49.932;8.494;2024-03-17T06:52:49;6.90;99.90
6363;DHT22;3214;49.932;8.494;2024-03-17T06:55:17;6.90;99.90
6363;DHT22;3214;49.932;8.494;2024-03-17T06:57:46;6.90;99.90
6363;DHT22;3214;49.932;8.494;2024-03-17T07:00:16;6.90;99.90
6363;DHT22;3214;49.932;8.494;2024-03-17T07:02:44;7.00;99.90
6363;DHT22;3214;49.932;8.494;2024-03-17T07:05:14;7.00;99.90
6363;DHT22;3214;49.932;8.494;2024-03-17T07:07:41;7.00;99.90
6363;DHT22;3214;49.932;8.494;2024-03-17T07:10:08;7.10;99.90
6363;DHT22;3214;49.932;8.494;2024-03-17T07:12:37;7.10;99.90
6363;DHT22;3214;49.932;8.494;2024-03-17T07:15:04;7.20;99.90
6363;DHT22;3214;49.932;8.494;2024-03-17T07:17:32;7.30;99.90
6363;DHT22;3214;49.932;8.494;2024-03-17T07:19:59;7.40;99.90
6363;DHT22;3214;49.932;8.494;2024-03-17T07:22:26;7.40;99.90
6363;DHT22;3214;49.932;8.494;2024-03-17T07:24:54;7.30;99.90
6363;DHT22;3214;49.932;8.494;2024-03-17T07:27:25;7.40;99.90
6363;DHT22;3214;49.932;8.494;2024-03-17T07:29:52;7.50;99.90
6363;DHT22;3214;49.932;8.494;2024-03-17T07:32:19;7.60;99.90
6363;DHT22;3214;49.932;8.494;2024-03-17T07:34:48;7.60;99.90
6363;DHT22;3214;49.932;8.494;2024-03-17T07:37:15;7.80;99.90
6363;DHT22;3214;49.932;8.494;2024-03-17T07:39:42;7.80;99.90
6363;DHT22;3214;49.932;8.494;2024-03-17T07:42:09;7.90;99.90
6363;DHT22;3214;49.932;8.494;2024-03-17T07:44:37;7.90;99.90
6363;DHT22;3214;49.932;8.494;2024-03-17T07:47:04;8.00;99.90
6363;DHT22;3214;49.932;8.494;2024-03-17T07:49:31;8.00;99.90
6363;DHT22;3214;49.932;8.494;2024-03-17T07:51:59;8.00;99.90
6363;DHT22;3214;49.932;8.494;2024-03-17T07:54:26;8.10;99.90
6363;DHT22;3214;49.932;8.494;2024-03-17T07:56:52;8.10;99.90
6363;DHT22;3214;49.932;8.494;2024-03-17T07:59:20;8.20;99.90
6363;DHT22;3214;49.932;8.494;2024-03-17T08:01:47;8.20;99.90
6363;DHT22;3214;49.932;8.494;2024-03-17T08:04:14;8.30;99.90
6363;DHT22;3214;49.932;8.494;2024-03-17T08:06:40;8.40;99.90
6363;DHT22;3214;49.932;8.494;2024-03-17T08:09:09;8.50;99.90
6363;DHT22;3214;49.932;8.494;2024-03-17T08:11:35;8.60;99.90
6363;DHT22;3214;49.932;8.494;2024-03-17T08:14:02;8.70;99.90
6363;DHT22;3214;49.932;8.494;2024-03-17T08:16:31;8.80;99.90
6363;DHT22;3214;49.932;8.494;2024-03-17T08:18:57;8.90;99.90
6363;DHT22;3214;49.932;8.494;2024-03-17T08:21:24;9.00;99.90
6363;DHT22;3214;49.932;8.494;2024-03-17T08:23:54;9.10;99.90
6363;DHT22;3214;49.932;8.494;2024-03-17T08:26:22;9.30;99.90
6363;DHT22;3214;49.932;8.494;2024-03-17T08:28:49;9.50;99.90
6363;DHT22;3214;49.932;8.494;2024-03-17T08:31:15;9.50;99.90
6363;DHT22;3214;49.932;8.494;2024-03-17T08:33:42;9.60;99.90
6363;DHT22;3214;49.932;8.494;2024-03-17T08:36:09;9.70;99.90
6363;DHT22;3214;49.932;8.494;2024-03-17T08:38:37;9.80;99.90
6363;DHT22;3214;49.932;8.494;2024-03-17T08:41:05;9.90;99.90
6363;DHT22;3214;49.932;8.494;2024-03-17T08:43:33;10.00;99.90
6363;DHT22;3214;49.932;8.494;2024-03-17T08:46:01;10.10;99.90
6363;DHT22;3214;49.932;8.494;2024-03-17T08:48:29;10.20;99.90
6363;DHT22;3214;49.932;8.494;2024-03-17T08:50:57;10.30;99.90
6363;DHT22;3214;49.932;8.494;2024-03-17T08:53:26;10.40;99.90
6363;DHT22;3214;49.932;8.494;2024-03-17T08:55:52;10.50;99.90
6363;DHT22;3214;49.932;8.494;2024-03-17T08:58:21;10.50;99.90
6363;DHT22;3214;49.932;8.494;2024-03-17T09:00:49;10.60;99.90
6363;DHT22;3214;49.932;8.494;2024-03-17T09:03:17;10.60;99.90
6363;DHT22;3214;49.932;8.494;2024-03-17T09:05:45;10.70;99.90
6363;DHT22;3214;49.932;8.494;2024-03-17T09:08:16;10.70;99.90
6363;DHT22;3214;49.932;8.494;2024-03-17T09:10:46;10.70;99.90
6363;DHT22;3214;49.932;8.494;2024-03-17T09:13:14;10.80;99.90
6363;DHT22;3214;49.932;8.494;2024-03-17T09:15:41;10.80;99.90
6363;DHT22;3214;49.932;8.494;2024-03-17T09:18:17;10.90;99.90
6363;DHT22;3214;49.932;8.494;2024-03-17T09:20:44;11.00;99.90
6363;DHT22;3214;49.932;8.494;2024-03-17T09:23:11;11.00;99.90
6363;DHT22;3214;49.932;8.494;2024-03-17T09:25:38;11.00;99.90
6363;DHT22;3214;49.932;8.494;2024-03-17T09:28:05;11.10;99.90
6363;DHT22;3214;49.932;8.494;2024-03-17T09:30:32;11.10;99.90
6363;DHT22;3214;49.932;8.494;2024-03-17T09:32:59;11.10;99.90
6363;DHT22;3214;49.932;8.494;2024-03-17T09:35:27;11.20;99.90
6363;DHT22;3214;49.932;8.494;2024-03-17T09:37:54;11.30;99.90
6363;DHT22;3214;49.932;8.494;2024-03-17T09:40:20;11.40;99.90
6363;DHT22;3214;49.932;8.494;2024-03-17T09:42:47;11.50;99.90
6363;DHT22;3214;49.932;8.494;2024-03-17T09:45:15;11.50;99.90
6363;DHT22;3214;49.932;8.494;2024-03-17T09:47:43;11.60;99.90
6363;DHT22;3214;49.932;8.494;2024-03-17T09:50:13;11.70;99.90
6363;DHT22;3214;49.932;8.494;2024-03-17T09:52:45;11.80;99.90
6363;DHT22;3214;49.932;8.494;2024-03-17T09:55:15;11.80;99.90
6363;DHT22;3214;49.932;8.494;2024-03-17T09:57:42;11.80;99.90
6363;DHT22;3214;49.932;8.494;2024-03-17T10:00:11;11.80;99.90
6363;DHT22;3214;49.932;8.494;2024-03-17T10:02:42;11.90;99.90
6363;DHT22;3214;49.932;8.494;2024-03-17T10:05:18;11.90;99.90
6363;DHT22;3214;49.932;8.494;2024-03-17T10:07:47;12.10;99.90
6363;DHT22;3214;49.932;8.494;2024-03-17T10:10:15;12.20;99.90
6363;DHT22;3214;49.932;8.494;2024-03-17T10:12:43;12.30;99.90
6363;DHT22;3214;49.932;8.494;2024-03-17T10:15:11;12.50;99.90
6363;DHT22;3214;49.932;8.494;2024-03-17T10:17:38;12.60;99.90
6363;DHT22;3214;49.932;8.494;2024-03-17T10:20:12;12.50;99.90
6363;DHT22;3214;49.932;8.494;2024-03-17T10:22:53;12.50;99.90
6363;DHT22;3214;49.932;8.494;2024-03-17T10:25:24;12.70;99.90
6363;DHT22;3214;49.932;8.494;2024-03-17T10:27:50;13.00;99.90
6363;DHT22;3214;49.932;8.494;2024-03-17T10:30:19;13.20;99.90
6363;DHT22;3214;49.932;8.494;2024-03-17T10:32:52;13.30;99.90
6363;DHT22;3214;49.932;8.494;2024-03-17T10:35:27;13.40;99.90
6363;DHT22;3214;49.932;8.494;2024-03-17T10:37:56;13.40;99.90
6363;DHT22;3214;49.932;8.494;2024-03-17T10:40:25;13.40;99.90
6363;DHT22;3214;49.932;8.494;2024-03-17T10:42:52;13.50;99.90
6363;DHT22;3214;49.932;8.494;2024-03-17T10:45:19;13.60;99.90
6363;DHT22;3214;49.932;8.494;2024-03-17T10:47:48;13.60;99.90
6363;DHT22;3214;49.932;8.494;2024-03-17T10:50:18;13.50;99.90
6363;DHT22;3214;49.932;8.494;2024-03-17T10:52:46;13.40;99.90
6363;DHT22;3214;49.932;8.494;2024-03-17T10:55:22;13.40;99.90
6363;DHT22;3214;49.932;8.494;2024-03-17T10:57:50;13.30;99.90
6363;DHT22;3214;49.932;8.494;2024-03-17T11:00:18;13.30;99.90
6363;DHT22;3214;49.932;8.494;2024-03-17T11:02:47;13.30;99.90
6363;DHT22;3214;49.932;8.494;2024-03-17T11:05:18;13.30;99.90
6363;DHT22;3214;49.932;8.494;2024-03-17T11:07:47;13.10;99.90
6363;DHT22;3214;49.932;8.494;2024-03-17T11:10:22;13.10;99.90
6363;DHT22;3214;49.932;8.494;2024-03-17T11:12:50;13.00;99.90
6363;DHT22;3214;49.932;8.494;2024-03-17T11:15:35;13.00;99.90
6363;DHT22;3214;49.932;8.494;2024-03-17T11:18:33;13.00;99.90
6363;DHT22;3214;49.932;8.494;2024-03-17T11:21:01;13.00;99.90
6363;DHT22;3214;49.932;8.494;2024-03-17T11:23:34;13.20;99.90
6363;DHT22;3214;49.932;8.494;2024-03-17T11:26:05;13.40;99.90
6363;DHT22;3214;49.932;8.494;2024-03-17T11:28:48;13.50;99.90
6363;DHT22;3214;49.932;8.494;2024-03-17T11:31:35;13.80;99.90
6363;DHT22;3214;49.932;8.494;2024-03-17T11:34:03;13.90;99.90
6363;DHT22;3214;49.932;8.494;2024-03-17T11:36:32;14.10;99.90
6363;DHT22;3214;49.932;8.494;2024-03-17T11:39:00;14.20;99.90
6363;DHT22;3214;49.932;8.494;2024-03-17T11:41:37;14.20;99.90
6363;DHT22;3214;49.932;8.494;2024-03-17T11:44:24;14.40;99.90
6363;DHT22;3214;49.932;8.494;2024-03-17T11:46:53;14.40;99.90
6363;DHT22;3214;49.932;8.494;2024-03-17T11:49:21;14.40;99.90
6363;DHT22;3214;49.932;8.494;2024-03-17T11:51:48;14.40;99.90
6363;DHT22;3214;49.932;8.494;2024-03-17T11:54:15;14.40;99.90
6363;DHT22;3214;49.932;8.494;2024-03-17T11:56:47;14.40;99.90
6363;DHT22;3214;49.932;8.494;2024-03-17T11:59:13;14.30;99.90
6363;DHT22;3214;49.932;8.494;2024-03-17T12:01:43;14.30;99.90
6363;DHT22;3214;49.932;8.494;2024-03-17T12:04:09;14.10;99.90
6363;DHT22;3214;49.932;8.494;2024-03-17T12:06:36;14.00;99.90
6363;DHT22;3214;49.932;8.494;2024-03-17T12:09:10;13.90;99.90
6363;DHT22;3214;49.932;8.494;2024-03-17T12:11:37;13.90;99.90
6363;DHT22;3214;49.932;8.494;2024-03-17T12:14:15;13.90;99.90
6363;DHT22;3214;49.932;8.494;2024-03-17T12:16:50;13.90;99.90
6363;DHT22;3214;49.932;8.494;2024-03-17T12:19:17;14.00;99.90
6363;DHT22;3214;49.932;8.494;2024-03-17T12:21:45;14.00;99.90
6363;DHT22;3214;49.932;8.494;2024-03-17T12:24:15;14.00;99.90
6363;DHT22;3214;49.932;8.494;2024-03-17T12:26:43;14.10;99.90
6363;DHT22;3214;49.932;8.494;2024-03-17T12:29:38;14.20;99.90
6363;DHT22;3214;49.932;8.494;2024-03-17T12:32:12;14.20;99.90
6363;DHT22;3214;49.932;8.494;2024-03-17T12:34:39;14.40;99.90
6363;DHT22;3214;49.932;8.494;2024-03-17T12:37:07;14.40;99.90
6363;DHT22;3214;49.932;8.494;2024-03-17T12:39:34;14.40;99.90
6363;DHT22;3214;49.932;8.494;2024-03-17T12:42:05;14.50;99.90
6363;DHT22;3214;49.932;8.494;2024-03-17T12:44:33;14.40;99.90
6363;DHT22;3214;49.932;8.494;2024-03-17T12:47:02;14.30;99.90
6363;DHT22;3214;49.932;8.494;2024-03-17T12:49:31;14.30;99.90
6363;DHT22;3214;49.932;8.494;2024-03-17T12:51:58;14.20;99.90
6363;DHT22;3214;49.932;8.494;2024-03-17T12:54:26;14.20;99.90
6363;DHT22;3214;49.932;8.494;2024-03-17T12:57:03;14.10;99.90
6363;DHT22;3214;49.932;8.494;2024-03-17T12:59:50;14.10;99.90
6363;DHT22;3214;49.932;8.494;2024-03-17T13:02:34;14.00;99.90
6363;DHT22;3214;49.932;8.494;2024-03-17T13:05:17;14.00;99.90
6363;DHT22;3214;49.932;8.494;2024-03-17T13:07:46;14.10;99.90
6363;DHT22;3214;49.932;8.494;2024-03-17T13:10:14;14.00;99.90
6363;DHT22;3214;49.932;8.494;2024-03-17T13:12:41;14.00;99.90
6363;DHT22;3214;49.932;8.494;2024-03-17T13:15:12;14.00;99.90
6363;DHT22;3214;49.932;8.494;2024-03-17T13:17:40;13.90;99.90
6363;DHT22;3214;49.932;8.494;2024-03-17T13:20:10;13.90;99.90
6363;DHT22;3214;49.932;8.494;2024-03-17T13:22:38;14.00;99.90
6363;DHT22;3214;49.932;8.494;2024-03-17T13:25:08;14.00;99.90
6363;DHT22;3214;49.932;8.494;2024-03-17T13:27:36;14.10;99.90
6363;DHT22;3214;49.932;8.494;2024-03-17T13:30:04;14.20;99.90
6363;DHT22;3214;49.932;8.494;2024-03-17T13:32:33;14.20;99.90
6363;DHT22;3214;49.932;8.494;2024-03-17T13:34:59;14.30;99.90
6363;DHT22;3214;49.932;8.494;2024-03-17T13:37:26;14.30;99.90
6363;DHT22;3214;49.932;8.494;2024-03-17T13:39:53;14.40;99.90
6363;DHT22;3214;49.932;8.494;2024-03-17T13:42:20;14.40;99.90
6363;DHT22;3214;49.932;8.494;2024-03-17T13:44:47;14.40;99.90
6363;DHT22;3214;49.932;8.494;2024-03-17T13:47:14;14.40;99.90
6363;DHT22;3214;49.932;8.494;2024-03-17T13:49:44;14.40;99.90
6363;DHT22;3214;49.932;8.494;2024-03-17T13:52:12;14.40;99.90
6363;DHT22;3214;49.932;8.494;2024-03-17T13:54:39;14.30;99.90
6363;DHT22;3214;49.932;8.494;2024-03-17T13:57:05;14.20;99.90
6363;DHT22;3214;49.932;8.494;2024-03-17T13:59:32;14.20;99.90
6363;DHT22;3214;49.932;8.494;2024-03-17T14:01:59;14.10;99.90
6363;DHT22;3214;49.932;8.494;2024-03-17T14:04:27;14.10;99.90
6363;DHT22;3214;49.932;8.494;2024-03-17T14:06:55;14.10;99.90
6363;DHT22;3214;49.932;8.494;2024-03-17T14:09:22;14.10;99.90
6363;DHT22;3214;49.932;8.494;2024-03-17T14:11:49;14.00;99.90
6363;DHT22;3214;49.932;8.494;2024-03-17T14:14:16;14.00;99.90
6363;DHT22;3214;49.932;8.494;2024-03-17T14:16:42;14.00;99.90
6363;DHT22;3214;49.932;8.494;2024-03-17T14:19:10;14.00;99.90
6363;DHT22;3214;49.932;8.494;2024-03-17T14:21:37;14.00;99.90
6363;DHT22;3214;49.932;8.494;2024-03-17T14:24:05;14.00;99.90
6363;DHT22;3214;49.932;8.494;2024-03-17T14:26:34;13.90;99.90
6363;DHT22;3214;49.932;8.494;2024-03-17T14:29:01;13.80;99.90
6363;DHT22;3214;49.932;8.494;2024-03-17T14:31:30;13.80;99.90
6363;DHT22;3214;49.932;8.494;2024-03-17T14:33:58;13.70;99.90
6363;DHT22;3214;49.932;8.494;2024-03-17T14:36:25;13.80;99.90
6363;DHT22;3214;49.932;8.494;2024-03-17T14:38:53;13.80;99.90
6363;DHT22;3214;49.932;8.494;2024-03-17T14:41:22;13.80;99.90
6363;DHT22;3214;49.932;8.494;2024-03-17T14:43:49;13.70;99.90
6363;DHT22;3214;49.932;8.494;2024-03-17T14:46:16;13.80;99.90
6363;DHT22;3214;49.932;8.494;2024-03-17T14:48:43;13.70;99.90
6363;DHT22;3214;49.932;8.494;2024-03-17T14:51:10;13.80;99.90
6363;DHT22;3214;49.932;8.494;2024-03-17T14:53:37;13.70;99.90
6363;DHT22;3214;49.932;8.494;2024-03-17T14:56:08;13.70;99.90
6363;DHT22;3214;49.932;8.494;2024-03-17T14:58:36;13.70;99.90
6363;DHT22;3214;49.932;8.494;2024-03-17T15:01:03;13.70;99.90
6363;DHT22;3214;49.932;8.494;2024-03-17T15:03:30;13.60;99.90
6363;DHT22;3214;49.932;8.494;2024-03-17T15:05:56;13.70;99.90
6363;DHT22;3214;49.932;8.494;2024-03-17T15:08:23;13.70;99.90
6363;DHT22;3214;49.932;8.494;2024-03-17T15:10:50;13.70;99.90
6363;DHT22;3214;49.932;8.494;2024-03-17T15:13:20;13.70;99.90
6363;DHT22;3214;49.932;8.494;2024-03-17T15:15:48;13.70;99.90
6363;DHT22;3214;49.932;8.494;2024-03-17T15:18:14;13.80;99.90
6363;DHT22;3214;49.932;8.494;2024-03-17T15:20:41;13.80;99.90
6363;DHT22;3214;49.932;8.494;2024-03-17T15:23:09;13.80;99.90
6363;DHT22;3214;49.932;8.494;2024-03-17T15:25:35;13.90;99.90
6363;DHT22;3214;49.932;8.494;2024-03-17T15:28:02;13.90;99.90
6363;DHT22;3214;49.932;8.494;2024-03-17T15:30:29;13.90;99.90
6363;DHT22;3214;49.932;8.494;2024-03-17T15:32:58;14.00;99.90
6363;DHT22;3214;49.932;8.494;2024-03-17T15:35:25;14.00;99.90
6363;DHT22;3214;49.932;8.494;2024-03-17T15:37:55;14.00;99.90
6363;DHT22;3214;49.932;8.494;2024-03-17T15:40:22;14.10;99.90
6363;DHT22;3214;49.932;8.494;2024-03-17T15:42:49;14.20;99.90
6363;DHT22;3214;49.932;8.494;2024-03-17T15:45:17;14.30;99.90
6363;DHT22;3214;49.932;8.494;2024-03-17T15:47:45;14.40;99.90
6363;DHT22;3214;49.932;8.494;2024-03-17T15:50:13;14.40;99.90
6363;DHT22;3214;49.932;8.494;2024-03-17T15:52:41;14.40;99.90
6363;DHT22;3214;49.932;8.494;2024-03-17T15:55:08;14.40;99.90
6363;DHT22;3214;49.932;8.494;2024-03-17T15:57:35;14.40;99.90
6363;DHT22;3214;49.932;8.494;2024-03-17T16:00:03;14.40;99.90
6363;DHT22;3214;49.932;8.494;2024-03-17T16:02:34;14.40;99.90
6363;DHT22;3214;49.932;8.494;2024-03-17T16:05:01;14.40;99.90
6363;DHT22;3214;49.932;8.494;2024-03-17T16:07:31;14.40;99.90
6363;DHT22;3214;49.932;8.494;2024-03-17T16:09:59;14.40;99.90
6363;DHT22;3214;49.932;8.494;2024-03-17T16:12:26;14.30;99.90
6363;DHT22;3214;49.932;8.494;2024-03-17T16:14:53;14.20;99.90
6363;DHT22;3214;49.932;8.494;2024-03-17T16:17:26;14.10;99.90